createdAt,value
2023-01-27T00:00:19.176Z,100276.17
2023-01-27T00:02:47.601Z,100272.70
2023-01-27T00:05:16.456Z,100270.86
2023-01-27T00:07:48.210Z,100272.70
2023-01-27T00:10:20.085Z,100268.95
2023-01-27T00:13:07.191Z,100269.83
2023-01-27T00:15:35.916Z,100271.52
2023-01-27T00:18:05.176Z,100268.45
2023-01-27T00:20:52.609Z,100267.04
2023-01-27T00:23:41.978Z,100265.80
2023-01-27T00:26:14.813Z,100260.93
2023-01-27T00:28:44.757Z,100260.73
2023-01-27T00:31:32.701Z,100258.38
2023-01-27T00:34:02.263Z,100256.92
2023-01-27T00:36:30.916Z,100257.29
2023-01-27T00:38:59.791Z,100252.55
2023-01-27T00:41:29.012Z,100256.96
2023-01-27T00:43:57.283Z,100260.06
2023-01-27T00:46:25.691Z,100260.06
2023-01-27T00:48:54.047Z,100257.05
2023-01-27T00:51:22.737Z,100258.52
2023-01-27T00:53:51.215Z,100254.30
2023-01-27T00:56:22.787Z,100249.27
2023-01-27T00:58:51.054Z,100245.43
2023-01-27T01:01:19.939Z,100245.27
2023-01-27T01:03:48.489Z,100246.73
2023-01-27T01:06:17.422Z,100245.11
2023-01-27T01:08:46.005Z,100240.92
2023-01-27T01:11:15.477Z,100245.67
2023-01-27T01:13:44.179Z,100244.09
2023-01-27T01:16:18.157Z,100240.74
2023-01-27T01:18:46.704Z,100239.63
2023-01-27T01:21:15.085Z,100233.25
2023-01-27T01:23:46.127Z,100223.81
2023-01-27T01:26:16.294Z,100223.40
2023-01-27T01:28:45.167Z,100220.28
2023-01-27T01:31:17.056Z,100214.77
2023-01-27T01:33:46.701Z,100213.83
2023-01-27T01:36:21.611Z,100212.44
2023-01-27T01:38:49.716Z,100213.37
2023-01-27T01:41:19.946Z,100213.01
2023-01-27T01:43:48.774Z,100211.05
2023-01-27T01:46:17.725Z,100207.41
2023-01-27T01:48:52.637Z,100201.17
2023-01-27T01:51:22.072Z,100202.61
2023-01-27T01:54:03.753Z,100204.02
2023-01-27T01:56:35.619Z,100204.78
2023-01-27T01:59:09.839Z,100199.85
2023-01-27T02:01:40.155Z,100200.87
2023-01-27T02:04:11.921Z,100197.92
2023-01-27T02:07:18.908Z,100195.84
2023-01-27T02:09:49.131Z,100194.52
2023-01-27T02:12:17.714Z,100190.41
2023-01-27T02:14:46.114Z,100183.63
2023-01-27T02:17:15.609Z,100182.64
2023-01-27T02:20:06.756Z,100180.92
2023-01-27T02:22:41.754Z,100182.96
2023-01-27T02:25:33.375Z,100187.38
2023-01-27T05:07:09.329Z,100185.58
2023-01-27T05:09:37.587Z,100185.52
2023-01-27T05:12:06.330Z,100184.20
2023-01-27T05:14:34.622Z,100183.90
2023-01-27T05:17:03.118Z,100182.77
2023-01-27T05:19:31.884Z,100186.06
2023-01-27T05:22:00.552Z,100186.11
2023-01-27T05:24:28.941Z,100186.66
2023-01-27T05:27:00.130Z,100189.44
2023-01-27T05:29:28.480Z,100192.09
2023-01-27T05:31:56.784Z,100195.27
2023-01-27T05:34:25.131Z,100191.08
2023-01-27T05:36:53.411Z,100187.73
2023-01-27T05:39:21.687Z,100185.89
2023-01-27T05:41:50.601Z,100186.30
2023-01-27T05:44:18.758Z,100186.77
2023-01-27T05:46:47.321Z,100185.01
2023-01-27T05:49:15.576Z,100188.63
2023-01-27T05:51:44.529Z,100188.58
2023-01-27T05:54:13.213Z,100194.60
2023-01-27T05:56:42.173Z,100190.54
2023-01-27T05:59:12.335Z,100191.46
2023-01-27T06:01:40.719Z,100184.76
2023-01-27T06:04:10.196Z,100180.60
2023-01-27T06:06:39.644Z,100185.57
2023-01-27T06:09:07.890Z,100193.60
2023-01-27T06:11:36.484Z,100204.16
2023-01-27T06:14:05.072Z,100199.27
2023-01-27T06:16:35.074Z,100203.35
2023-01-27T06:19:03.666Z,100203.58
2023-01-27T06:21:31.955Z,100204.24
2023-01-27T06:24:00.130Z,100205.10
2023-01-27T06:26:29.415Z,100206.79
2023-01-27T06:28:58.766Z,100207.05
2023-01-27T06:31:28.546Z,100208.52
2023-01-27T06:33:56.849Z,100208.98
2023-01-27T06:36:25.292Z,100210.23
2023-01-27T06:38:53.576Z,100202.95
2023-01-27T06:41:22.180Z,100203.05
2023-01-27T06:43:52.994Z,100199.95
2023-01-27T06:46:21.628Z,100198.37
2023-01-27T06:48:51.091Z,100199.79
2023-01-27T06:51:19.778Z,100199.15
2023-01-27T06:53:48.173Z,100200.30
2023-01-27T06:56:17.512Z,100204.56
2023-01-27T06:58:46.358Z,100209.28
2023-01-27T07:01:14.716Z,100210.48
2023-01-27T07:03:45.011Z,100206.91
2023-01-27T07:06:15.297Z,100209.12
2023-01-27T07:08:47.679Z,100206.98
2023-01-27T07:11:16.046Z,100204.09
2023-01-27T07:13:44.418Z,100201.40
2023-01-27T07:16:12.954Z,100199.65
2023-01-27T07:18:41.715Z,100202.98
2023-01-27T07:21:10.479Z,100201.27
2023-01-27T07:23:38.867Z,100204.15
2023-01-27T07:26:19.252Z,100207.42
2023-01-27T07:28:53.337Z,100210.48
2023-01-27T07:31:21.766Z,100210.09
2023-01-27T07:33:53.142Z,100208.38
2023-01-27T07:36:21.347Z,100208.89
2023-01-27T07:38:50.861Z,100207.73
2023-01-27T07:41:19.771Z,100207.93
2023-01-27T07:43:48.004Z,100205.20
2023-01-27T07:46:20.093Z,100199.46
2023-01-27T07:48:48.775Z,100199.12
2023-01-27T07:51:18.401Z,100197.03
2023-01-27T07:53:46.906Z,100198.27
2023-01-27T07:56:15.147Z,100194.64
2023-01-27T07:58:46.729Z,100190.91
2023-01-27T08:01:15.369Z,100193.27
2023-01-27T08:03:44.001Z,100195.48
2023-01-27T08:06:12.575Z,100191.75
2023-01-27T08:08:41.144Z,100185.42
2023-01-27T08:11:11.879Z,100185.09
2023-01-27T08:13:40.838Z,100182.17
2023-01-27T08:16:13.023Z,100184.16
2023-01-27T08:18:42.205Z,100180.02
2023-01-27T08:21:11.650Z,100180.39
2023-01-27T08:23:40.251Z,100176.03
2023-01-27T08:26:09.131Z,100176.50
2023-01-27T08:28:38.245Z,100173.87
2023-01-27T08:31:14.548Z,100173.36
2023-01-27T08:33:44.408Z,100178.44
2023-01-27T08:36:16.425Z,100180.35
2023-01-27T08:38:50.192Z,100179.38
2023-01-27T08:41:24.195Z,100176.93
2023-01-27T08:43:52.467Z,100175.05
2023-01-27T08:46:20.747Z,100178.42
2023-01-27T08:48:50.569Z,100177.27
2023-01-27T08:51:19.389Z,100177.33
2023-01-27T08:53:51.348Z,100177.62
2023-01-27T08:56:21.649Z,100181.16
2023-01-27T08:58:52.369Z,100180.83
2023-01-27T09:01:21.022Z,100185.39
2023-01-27T09:03:49.562Z,100184.42
2023-01-27T09:06:19.468Z,100182.95
2023-01-27T09:09:10.045Z,100179.86
2023-01-27T09:11:41.236Z,100174.14
2023-01-27T09:14:09.626Z,100173.16
2023-01-27T09:16:38.175Z,100174.70
2023-01-27T09:19:06.562Z,100176.79
2023-01-27T09:21:34.986Z,100177.12
2023-01-27T09:24:03.351Z,100180.06
2023-01-27T09:26:35.888Z,100173.58
2023-01-27T09:29:04.197Z,100171.21
2023-01-27T09:31:33.423Z,100172.15
2023-01-27T09:34:01.789Z,100170.15
2023-01-27T09:36:36.674Z,100167.21
2023-01-27T09:39:07.324Z,100165.92
2023-01-27T09:41:47.892Z,100161.92
2023-01-27T09:44:36.992Z,100160.44
2023-01-27T09:47:12.142Z,100161.63
2023-01-27T09:49:55.735Z,100158.80
2023-01-27T09:52:47.204Z,100157.55
2023-01-27T09:55:28.642Z,100155.55
2023-01-27T09:58:10.142Z,100155.52
2023-01-27T10:01:10.880Z,100155.11
2023-01-27T10:03:49.352Z,100155.20
2023-01-27T10:06:42.324Z,100152.70
2023-01-27T10:09:36.448Z,100154.26
2023-01-27T10:12:13.521Z,100153.56
2023-01-27T13:22:40.295Z,100077.48
2023-01-27T13:25:09.372Z,100074.91
2023-01-27T13:27:40.567Z,100078.42
2023-01-27T13:30:27.724Z,100078.95
2023-01-27T13:32:58.039Z,100077.50
2023-01-27T13:35:37.784Z,100074.65
2023-01-27T13:38:28.692Z,100076.80
2023-01-27T13:40:57.080Z,100076.02
2023-01-27T13:43:34.471Z,100078.37
2023-01-27T13:46:25.891Z,100080.35
2023-01-27T13:48:55.292Z,100081.76
2023-01-27T13:51:29.055Z,100078.65
2023-01-27T13:54:01.595Z,100079.11
2023-01-27T13:56:57.293Z,100079.77
2023-01-27T13:59:46.557Z,100075.27
2023-01-27T14:02:33.480Z,100074.48
2023-01-27T14:05:27.360Z,100078.38
2023-01-27T14:08:14.580Z,100078.50
2023-01-27T14:11:18.292Z,100081.95
2023-01-27T14:14:15.177Z,100090.41
2023-01-27T14:17:13.084Z,100093.23
2023-01-27T14:19:51.734Z,100094.53
2023-01-27T14:22:22.883Z,100097.11
2023-01-27T14:25:30.181Z,100104.08
2023-01-27T14:28:08.454Z,100105.66
2023-01-27T14:30:43.549Z,100110.88
2023-01-27T14:33:20.819Z,100110.23
2023-01-27T14:35:56.561Z,100112.11
2023-01-27T14:38:33.052Z,100109.29
2023-01-27T14:41:10.606Z,100109.89
2023-01-27T14:44:11.783Z,100114.91
2023-01-27T14:46:56.582Z,100114.95
2023-01-27T14:49:50.936Z,100118.77
2023-01-27T14:52:31.228Z,100120.02
2023-01-27T14:55:31.948Z,100120.19
2023-01-27T14:58:20.078Z,100116.88
2023-01-27T15:00:54.736Z,100114.70
2023-01-27T15:03:41.947Z,100119.15
2023-01-27T15:06:32.122Z,100115.02
2023-01-27T15:09:13.096Z,100115.55
2023-01-27T15:12:09.556Z,100120.05
2023-01-27T15:15:03.552Z,100123.98
2023-01-27T15:17:40.503Z,100119.04
2023-01-27T15:20:15.609Z,100121.86
2023-01-27T15:23:07.017Z,100121.86
2023-01-27T15:25:40.411Z,100118.31
2023-01-27T15:28:15.824Z,100117.54
2023-01-27T15:31:09.786Z,100114.52
2023-01-27T15:33:55.785Z,100116.51
2023-01-27T15:36:32.030Z,100113.94
2023-01-27T15:39:09.462Z,100113.66
2023-01-27T15:41:53.173Z,100111.83
2023-01-27T15:44:24.637Z,100107.86
2023-01-27T15:47:12.358Z,100109.85
2023-01-27T15:49:46.816Z,100112.20
2023-01-27T15:52:30.713Z,100111.05
2023-01-27T15:55:03.722Z,100109.63
2023-01-27T15:57:35.479Z,100113.55
2023-01-27T16:00:22.775Z,100116.85
2023-01-27T16:02:54.667Z,100119.17
2023-01-27T16:05:27.852Z,100117.20
2023-01-27T16:08:01.154Z,100117.98
2023-01-27T16:10:32.016Z,100122.35
2023-01-27T16:13:21.364Z,100119.23
2023-01-27T16:16:19.598Z,100120.45
2023-01-27T16:19:01.090Z,100120.04
2023-01-27T16:21:58.081Z,100123.46
2023-01-27T16:24:32.033Z,100119.61
2023-01-27T16:27:07.355Z,100120.20
2023-01-27T16:29:58.069Z,100123.27
2023-01-27T16:32:36.766Z,100125.27
2023-01-27T16:35:07.098Z,100125.58
2023-01-27T16:37:37.286Z,100129.08
2023-01-27T16:40:11.840Z,100126.61
2023-01-27T16:43:06.430Z,100118.33
2023-01-27T16:46:01.755Z,100115.48
2023-01-27T16:48:44.872Z,100116.98
2023-01-27T16:51:20.791Z,100118.11
2023-01-27T16:53:53.219Z,100114.04
2023-01-27T16:56:24.500Z,100114.55
2023-01-27T16:58:57.154Z,100116.14
2023-01-27T17:01:28.935Z,100114.48
2023-01-27T17:04:07.620Z,100109.58
2023-01-27T17:06:39.345Z,100108.64
2023-01-27T17:09:28.275Z,100105.69
2023-01-27T17:11:57.247Z,100106.54
2023-01-27T17:14:42.916Z,100106.58
2023-01-27T17:17:18.036Z,100106.60
2023-01-27T17:19:47.895Z,100110.92
2023-01-27T17:22:26.801Z,100116.53
2023-01-27T17:25:02.480Z,100117.52
2023-01-27T17:27:36.008Z,100115.89
2023-01-27T17:30:13.568Z,100118.49
2023-01-27T17:32:47.025Z,100117.20
2023-01-27T17:35:22.342Z,100114.55
2023-01-27T17:37:50.670Z,100111.53
2023-01-27T17:40:21.818Z,100112.23
2023-01-27T17:42:50.299Z,100108.85
2023-01-27T17:45:24.417Z,100109.08
2023-01-27T17:47:52.692Z,100108.70
2023-01-27T17:50:26.397Z,100107.66
2023-01-27T17:52:54.575Z,100104.88
2023-01-27T17:55:24.503Z,100107.48
2023-01-27T17:58:12.225Z,100109.61
2023-01-27T18:00:42.351Z,100108.73
2023-01-27T18:03:22.517Z,100112.83
2023-01-27T18:05:53.670Z,100113.55
2023-01-27T18:08:25.815Z,100119.83
2023-01-27T18:11:04.333Z,100124.47
2023-01-27T18:13:32.613Z,100127.64
2023-01-27T18:16:13.923Z,100128.26
2023-01-27T18:18:48.030Z,100131.16
2023-01-27T18:21:23.765Z,100129.94
2023-01-27T18:23:59.056Z,100136.49
2023-01-27T18:26:39.774Z,100147.55
2023-01-27T18:29:39.079Z,100149.77
2023-01-27T18:32:13.813Z,100147.58
2023-01-27T18:34:47.217Z,100143.06
2023-01-27T18:37:26.274Z,100144.24
2023-01-27T18:39:55.562Z,100146.68
2023-01-27T18:42:24.634Z,100146.20
2023-01-27T18:44:53.056Z,100142.25
2023-01-27T18:47:32.160Z,100142.33
2023-01-27T18:50:20.410Z,100141.36
2023-01-27T18:52:48.906Z,100132.65
2023-01-27T18:55:23.922Z,100130.58
2023-01-27T18:57:57.009Z,100132.87
2023-01-27T19:00:35.120Z,100132.14
2023-01-27T19:03:04.091Z,100130.02
2023-01-27T19:05:34.371Z,100127.63
2023-01-27T19:08:06.571Z,100126.29
2023-01-27T19:10:35.291Z,100127.23
2023-01-27T19:13:04.302Z,100125.08
2023-01-27T19:15:50.356Z,100130.05
2023-01-27T19:18:27.241Z,100129.40
2023-01-27T19:20:55.746Z,100125.82
2023-01-27T19:23:29.850Z,100123.72
2023-01-27T19:25:58.753Z,100126.08
2023-01-27T19:28:32.154Z,100132.02
2023-01-27T19:31:00.657Z,100128.49
2023-01-27T19:33:29.745Z,100132.73
2023-01-27T19:36:11.023Z,100136.00
2023-01-27T19:38:39.441Z,100136.74
2023-01-27T19:41:10.606Z,100134.54
2023-01-27T19:43:39.085Z,100132.81
2023-01-27T19:46:15.111Z,100131.35
2023-01-27T19:48:43.904Z,100133.18
2023-01-27T19:51:12.023Z,100135.67
2023-01-27T19:53:46.695Z,100138.05
2023-01-27T19:56:19.702Z,100137.03
2023-01-27T19:58:52.914Z,100134.55
2023-01-27T20:01:24.981Z,100137.45
2023-01-27T20:03:53.890Z,100138.02
2023-01-27T20:06:27.566Z,100139.32
2023-01-27T20:08:57.421Z,100138.10
2023-01-27T21:12:42.434Z,100114.20
2023-01-27T21:15:11.369Z,100111.83
2023-01-27T21:17:40.928Z,100114.98
2023-01-27T21:20:10.762Z,100117.02
2023-01-27T21:22:39.386Z,100115.33
2023-01-27T21:25:09.291Z,100112.96
2023-01-27T21:27:42.023Z,100112.05
2023-01-27T21:30:11.803Z,100112.12
2023-01-27T21:32:41.188Z,100113.84
2023-01-27T21:35:11.691Z,100110.59
2023-01-27T21:37:40.520Z,100110.76
2023-01-27T21:40:09.741Z,100108.84
2023-01-27T21:43:01.340Z,100108.27
2023-01-27T21:45:29.717Z,100108.00
2023-01-27T21:47:58.107Z,100105.11
2023-01-27T21:50:28.855Z,100097.43
2023-01-27T21:52:58.445Z,100092.86
2023-01-27T21:55:28.257Z,100091.39
2023-01-27T21:57:56.553Z,100092.16
2023-01-27T22:00:26.980Z,100088.17
2023-01-27T22:02:59.716Z,100082.39
2023-01-27T22:05:28.704Z,100083.89
2023-01-27T22:07:57.527Z,100080.39
2023-01-27T22:10:27.355Z,100075.61
2023-01-27T22:13:04.746Z,100067.66
2023-01-27T22:15:35.067Z,100070.25
2023-01-27T22:18:07.440Z,100073.75
2023-01-27T22:20:36.238Z,100071.51
2023-01-27T22:23:04.566Z,100069.75
2023-01-27T22:25:33.504Z,100063.38
2023-01-27T22:28:02.206Z,100059.48
2023-01-27T22:30:32.768Z,100057.86
2023-01-27T22:33:04.086Z,100051.08
2023-01-27T22:35:33.890Z,100049.59
2023-01-27T22:38:02.707Z,100049.77
2023-01-27T22:40:33.724Z,100044.69
2023-01-27T22:43:09.326Z,100043.77
2023-01-27T22:45:41.073Z,100043.75
2023-01-27T22:48:10.141Z,100047.73
2023-01-27T22:50:40.821Z,100047.09
2023-01-27T22:53:11.199Z,100046.79
2023-01-27T22:55:39.374Z,100044.79
2023-01-27T22:58:08.982Z,100042.80
2023-01-27T23:00:37.254Z,100037.62
2023-01-27T23:03:05.644Z,100034.80
2023-01-27T23:05:34.842Z,100037.55
2023-01-27T23:08:03.214Z,100034.20
2023-01-27T23:10:31.596Z,100036.20
2023-01-27T23:12:59.975Z,100036.51
2023-01-27T23:15:32.040Z,100036.20
2023-01-27T23:18:01.144Z,100040.55
2023-01-27T23:20:29.443Z,100039.84
2023-01-27T23:22:58.308Z,100040.41
2023-01-27T23:25:26.701Z,100041.26
2023-01-27T23:27:55.081Z,100040.21
2023-01-27T23:30:23.662Z,100040.40
2023-01-27T23:32:57.476Z,100035.39
2023-01-27T23:35:26.053Z,100032.36
2023-01-27T23:37:54.429Z,100030.63
2023-01-27T23:40:22.815Z,100032.70
2023-01-27T23:42:52.415Z,100033.18
2023-01-27T23:45:20.899Z,100032.86
2023-01-27T23:47:49.384Z,100037.10
2023-01-27T23:50:18.053Z,100036.23
2023-01-27T23:52:46.345Z,100028.59
2023-01-27T23:55:15.279Z,100028.54
2023-01-27T23:57:43.951Z,100026.61
